sensor_id;sensor_type;location;lat;lon;timestamp;temperature;humidity
35463;DHT22;21578;47.892;9.970;2023-11-21T05:01:30;5.50;96.60
35463;DHT22;21578;47.892;9.970;2023-11-21T05:06:18;5.50;96.60
35463;DHT22;21578;47.892;9.970;2023-11-21T05:11:06;5.50;96.60
35463;DHT22;21578;47.892;9.970;2023-11-21T05:15:56;5.50;96.60
35463;DHT22;21578;47.892;9.970;2023-11-21T05:20:45;5.50;96.60
35463;DHT22;21578;47.892;9.970;2023-11-21T05:25:33;5.60;96.60
35463;DHT22;21578;47.892;9.970;2023-11-21T05:30:21;5.60;96.60
35463;DHT22;21578;47.892;9.970;2023-11-21T05:35:16;5.50;96.60
35463;DHT22;21578;47.892;9.970;2023-11-21T05:40:09;5.60;96.60
35463;DHT22;21578;47.892;9.970;2023-11-21T05:44:56;5.60;96.60
35463;DHT22;21578;47.892;9.970;2023-11-21T05:49:44;5.50;96.60
35463;DHT22;21578;47.892;9.970;2023-11-21T05:54:35;5.60;96.60
35463;DHT22;21578;47.892;9.970;2023-11-21T05:59:24;5.60;96.60
35463;DHT22;21578;47.892;9.970;2023-11-21T06:04:14;5.60;96.60
35463;DHT22;21578;47.892;9.970;2023-11-21T06:09:02;5.70;96.60
35463;DHT22;21578;47.892;9.970;2023-11-21T06:14:15;5.70;96.60
35463;DHT22;21578;47.892;9.970;2023-11-21T06:19:08;5.70;96.60
35463;DHT22;21578;47.892;9.970;2023-11-21T06:23:57;5.70;96.60
35463;DHT22;21578;47.892;9.970;2023-11-21T06:28:48;5.60;96.60
35463;DHT22;21578;47.892;9.970;2023-11-21T06:33:38;5.60;96.60
35463;DHT22;21578;47.892;9.970;2023-11-21T06:38:35;5.60;96.60
35463;DHT22;21578;47.892;9.970;2023-11-21T06:43:27;5.60;96.60
35463;DHT22;21578;47.892;9.970;2023-11-21T06:48:14;5.60;96.60
35463;DHT22;21578;47.892;9.970;2023-11-21T06:53:01;5.60;96.60
35463;DHT22;21578;47.892;9.970;2023-11-21T06:57:53;5.60;96.60
35463;DHT22;21578;47.892;9.970;2023-11-21T07:02:40;5.60;96.60
35463;DHT22;21578;47.892;9.970;2023-11-21T07:07:28;5.60;96.60
35463;DHT22;21578;47.892;9.970;2023-11-21T07:12:15;5.60;96.60
35463;DHT22;21578;47.892;9.970;2023-11-21T07:17:03;5.60;96.60
35463;DHT22;21578;47.892;9.970;2023-11-21T07:21:50;5.60;96.60
35463;DHT22;21578;47.892;9.970;2023-11-21T07:26:37;5.70;96.60
35463;DHT22;21578;47.892;9.970;2023-11-21T07:31:24;5.60;96.60
35463;DHT22;21578;47.892;9.970;2023-11-21T07:36:13;5.70;96.60
35463;DHT22;21578;47.892;9.970;2023-11-21T07:41:00;5.70;96.60
35463;DHT22;21578;47.892;9.970;2023-11-21T07:45:48;5.80;96.60
35463;DHT22;21578;47.892;9.970;2023-11-21T07:50:35;5.80;96.60
35463;DHT22;21578;47.892;9.970;2023-11-21T07:55:24;5.90;96.60
35463;DHT22;21578;47.892;9.970;2023-11-21T08:00:13;6.00;96.60
35463;DHT22;21578;47.892;9.970;2023-11-21T08:05:00;6.00;96.60
35463;DHT22;21578;47.892;9.970;2023-11-21T08:09:48;6.00;96.60
35463;DHT22;21578;47.892;9.970;2023-11-21T08:14:37;6.10;96.60
35463;DHT22;21578;47.892;9.970;2023-11-21T08:19:26;6.10;96.60
35463;DHT22;21578;47.892;9.970;2023-11-21T08:24:13;6.10;96.60
35463;DHT22;21578;47.892;9.970;2023-11-21T08:29:00;6.20;96.60
35463;DHT22;21578;47.892;9.970;2023-11-21T08:33:48;6.20;96.60
35463;DHT22;21578;47.892;9.970;2023-11-21T08:38:36;6.20;96.60
35463;DHT22;21578;47.892;9.970;2023-11-21T08:43:23;6.30;96.60
35463;DHT22;21578;47.892;9.970;2023-11-21T08:48:13;6.20;96.60
35463;DHT22;21578;47.892;9.970;2023-11-21T08:53:01;6.30;96.60
35463;DHT22;21578;47.892;9.970;2023-11-21T08:57:48;6.30;96.60
35463;DHT22;21578;47.892;9.970;2023-11-21T09:02:35;6.30;96.60
35463;DHT22;21578;47.892;9.970;2023-11-21T09:07:22;6.50;96.60
35463;DHT22;21578;47.892;9.970;2023-11-21T09:12:11;6.40;96.60
35463;DHT22;21578;47.892;9.970;2023-11-21T09:16:58;6.50;96.60
35463;DHT22;21578;47.892;9.970;2023-11-21T09:21:45;6.50;96.60
35463;DHT22;21578;47.892;9.970;2023-11-21T09:26:31;6.60;96.60
35463;DHT22;21578;47.892;9.970;2023-11-21T09:31:20;6.70;96.60
35463;DHT22;21578;47.892;9.970;2023-11-21T09:36:11;6.70;96.60
35463;DHT22;21578;47.892;9.970;2023-11-21T09:41:00;6.70;96.60
35463;DHT22;21578;47.892;9.970;2023-11-21T09:45:54;6.80;96.60
35463;DHT22;21578;47.892;9.970;2023-11-21T09:50:43;6.90;96.60
35463;DHT22;21578;47.892;9.970;2023-11-21T09:55:34;6.90;96.60
35463;DHT22;21578;47.892;9.970;2023-11-21T10:00:22;6.90;96.60
35463;DHT22;21578;47.892;9.970;2023-11-21T10:05:10;7.00;96.60
35463;DHT22;21578;47.892;9.970;2023-11-21T10:09:59;7.00;96.60
35463;DHT22;21578;47.892;9.970;2023-11-21T10:14:48;7.00;96.60
35463;DHT22;21578;47.892;9.970;2023-11-21T10:19:36;7.00;96.60
35463;DHT22;21578;47.892;9.970;2023-11-21T10:24:23;7.20;96.60
35463;DHT22;21578;47.892;9.970;2023-11-21T10:29:14;7.30;96.60
35463;DHT22;21578;47.892;9.970;2023-11-21T10:34:14;7.30;96.60
35463;DHT22;21578;47.892;9.970;2023-11-21T10:39:01;7.20;96.60
35463;DHT22;21578;47.892;9.970;2023-11-21T10:43:48;7.20;96.60
35463;DHT22;21578;47.892;9.970;2023-11-21T10:48:36;7.30;96.60
35463;DHT22;21578;47.892;9.970;2023-11-21T10:53:23;7.40;96.60
35463;DHT22;21578;47.892;9.970;2023-11-21T10:58:11;7.50;96.60
35463;DHT22;21578;47.892;9.970;2023-11-21T11:03:00;7.50;96.60
35463;DHT22;21578;47.892;9.970;2023-11-21T11:07:50;7.50;96.60
35463;DHT22;21578;47.892;9.970;2023-11-21T11:12:41;7.40;96.60
35463;DHT22;21578;47.892;9.970;2023-11-21T11:17:28;7.60;96.60
35463;DHT22;21578;47.892;9.970;2023-11-21T11:22:24;7.60;96.60
35463;DHT22;21578;47.892;9.970;2023-11-21T11:27:24;7.50;96.60
35463;DHT22;21578;47.892;9.970;2023-11-21T11:37:21;7.60;96.60
35463;DHT22;21578;47.892;9.970;2023-11-21T11:42:12;7.60;96.60
35463;DHT22;21578;47.892;9.970;2023-11-21T11:47:01;7.60;96.60
35463;DHT22;21578;47.892;9.970;2023-11-21T11:51:48;7.70;96.60
35463;DHT22;21578;47.892;9.970;2023-11-21T11:56:35;7.80;96.60
35463;DHT22;21578;47.892;9.970;2023-11-21T12:01:25;7.90;96.60
35463;DHT22;21578;47.892;9.970;2023-11-21T12:06:14;8.00;96.60
35463;DHT22;21578;47.892;9.970;2023-11-21T12:11:01;8.10;96.60
35463;DHT22;21578;47.892;9.970;2023-11-21T12:15:48;8.10;96.60
35463;DHT22;21578;47.892;9.970;2023-11-21T12:20:35;8.00;96.60
35463;DHT22;21578;47.892;9.970;2023-11-21T12:25:26;8.10;96.60
35463;DHT22;21578;47.892;9.970;2023-11-21T12:30:15;8.20;96.60
35463;DHT22;21578;47.892;9.970;2023-11-21T12:35:03;8.30;96.60
35463;DHT22;21578;47.892;9.970;2023-11-21T12:39:51;8.30;96.60
35463;DHT22;21578;47.892;9.970;2023-11-21T12:55:23;8.00;96.60
35463;DHT22;21578;47.892;9.970;2023-11-21T13:00:13;7.90;96.60
35463;DHT22;21578;47.892;9.970;2023-11-21T13:05:12;7.90;96.60
35463;DHT22;21578;47.892;9.970;2023-11-21T13:10:07;8.00;96.60
35463;DHT22;21578;47.892;9.970;2023-11-21T13:14:56;8.00;96.60
35463;DHT22;21578;47.892;9.970;2023-11-21T13:19:44;7.90;96.60
35463;DHT22;21578;47.892;9.970;2023-11-21T13:24:32;7.80;96.60
35463;DHT22;21578;47.892;9.970;2023-11-21T13:29:19;8.10;96.60
35463;DHT22;21578;47.892;9.970;2023-11-21T13:34:08;8.10;96.60
35463;DHT22;21578;47.892;9.970;2023-11-21T13:38:55;8.00;96.60
35463;DHT22;21578;47.892;9.970;2023-11-21T13:43:44;8.00;96.60
35463;DHT22;21578;47.892;9.970;2023-11-21T13:48:38;7.80;96.60
35463;DHT22;21578;47.892;9.970;2023-11-21T13:53:29;7.80;96.60
35463;DHT22;21578;47.892;9.970;2023-11-21T13:58:16;7.80;96.60
35463;DHT22;21578;47.892;9.970;2023-11-21T14:03:08;7.70;96.60
35463;DHT22;21578;47.892;9.970;2023-11-21T14:08:03;7.60;96.60
35463;DHT22;21578;47.892;9.970;2023-11-21T14:12:51;7.60;96.60
35463;DHT22;21578;47.892;9.970;2023-11-21T14:17:38;7.50;96.60
35463;DHT22;21578;47.892;9.970;2023-11-21T14:22:26;7.50;96.60
35463;DHT22;21578;47.892;9.970;2023-11-21T14:27:13;7.50;96.60
35463;DHT22;21578;47.892;9.970;2023-11-21T14:32:03;7.40;96.60
35463;DHT22;21578;47.892;9.970;2023-11-21T14:42:32;7.40;96.60
35463;DHT22;21578;47.892;9.970;2023-11-21T14:47:23;7.30;96.60
35463;DHT22;21578;47.892;9.970;2023-11-21T14:52:12;7.30;96.60
35463;DHT22;21578;47.892;9.970;2023-11-21T14:57:14;7.20;96.60
35463;DHT22;21578;47.892;9.970;2023-11-21T15:02:04;7.10;96.60
35463;DHT22;21578;47.892;9.970;2023-11-21T15:07:02;7.10;96.60
35463;DHT22;21578;47.892;9.970;2023-11-21T15:11:50;7.10;96.60
35463;DHT22;21578;47.892;9.970;2023-11-21T15:16:41;7.00;96.60
35463;DHT22;21578;47.892;9.970;2023-11-21T15:21:47;6.80;96.60
35463;DHT22;21578;47.892;9.970;2023-11-21T15:26:50;6.80;96.60
35463;DHT22;21578;47.892;9.970;2023-11-21T15:31:37;6.80;96.60
35463;DHT22;21578;47.892;9.970;2023-11-21T15:36:26;6.90;96.60
35463;DHT22;21578;47.892;9.970;2023-11-21T15:41:13;6.90;96.60
35463;DHT22;21578;47.892;9.970;2023-11-21T15:46:04;6.90;96.60
35463;DHT22;21578;47.892;9.970;2023-11-21T15:50:53;6.90;96.60
35463;DHT22;21578;47.892;9.970;2023-11-21T15:55:43;6.80;96.60
35463;DHT22;21578;47.892;9.970;2023-11-21T16:00:30;6.90;96.60
35463;DHT22;21578;47.892;9.970;2023-11-21T16:05:19;6.90;96.60
35463;DHT22;21578;47.892;9.970;2023-11-21T16:10:07;7.00;96.60
35463;DHT22;21578;47.892;9.970;2023-11-21T16:14:56;6.90;96.60
35463;DHT22;21578;47.892;9.970;2023-11-21T16:19:43;6.80;96.60
35463;DHT22;21578;47.892;9.970;2023-11-21T16:24:32;6.80;96.60
35463;DHT22;21578;47.892;9.970;2023-11-21T16:29:19;6.80;96.60
35463;DHT22;21578;47.892;9.970;2023-11-21T16:34:11;6.70;96.60
35463;DHT22;21578;47.892;9.970;2023-11-21T16:38:59;6.70;96.60
35463;DHT22;21578;47.892;9.970;2023-11-21T16:44:04;6.70;96.60
35463;DHT22;21578;47.892;9.970;2023-11-21T16:48:51;6.70;96.60
35463;DHT22;21578;47.892;9.970;2023-11-21T16:59:25;6.70;96.60
35463;DHT22;21578;47.892;9.970;2023-11-21T23:11:49;5.70;96.60
35463;DHT22;21578;47.892;9.970;2023-11-21T23:16:37;5.70;96.60
35463;DHT22;21578;47.892;9.970;2023-11-21T23:21:28;5.70;96.60
35463;DHT22;21578;47.892;9.970;2023-11-21T23:26:21;5.80;96.60
35463;DHT22;21578;47.892;9.970;2023-11-21T23:31:10;5.80;96.60
35463;DHT22;21578;47.892;9.970;2023-11-21T23:35:58;5.80;96.60
35463;DHT22;21578;47.892;9.970;2023-11-21T23:40:46;5.70;96.60
35463;DHT22;21578;47.892;9.970;2023-11-21T23:45:34;5.70;96.60
35463;DHT22;21578;47.892;9.970;2023-11-21T23:50:25;5.70;96.60
35463;DHT22;21578;47.892;9.970;2023-11-21T23:55:13;5.70;96.60
